createdAt,value
2023-04-19T00:00:19.974Z,13.47
2023-04-19T00:05:24.698Z,13.73
2023-04-19T00:10:27.817Z,14.37
2023-04-19T00:15:32.684Z,13.37
2023-04-19T00:20:36.273Z,12.73
2023-04-19T00:25:39.554Z,12.90
2023-04-19T00:30:43.971Z,14.47
2023-04-19T00:35:47.034Z,11.97
2023-04-19T00:40:50.143Z,12.60
2023-04-19T00:45:54.756Z,13.63
2023-04-19T00:50:57.964Z,12.90
2023-04-19T00:56:04.685Z,14.20
2023-04-19T01:01:09.101Z,14.50
2023-04-19T01:06:12.300Z,13.50
2023-04-19T01:11:15.374Z,12.60
2023-04-19T01:16:20.115Z,13.30
2023-04-19T01:21:23.384Z,13.57
2023-04-19T01:26:27.749Z,14.83
2023-04-19T01:31:30.879Z,13.63
2023-04-19T01:36:33.971Z,13.90
2023-04-19T01:41:38.326Z,14.80
2023-04-19T01:46:42.654Z,14.27
2023-04-19T01:51:46.562Z,16.03
2023-04-19T01:56:50.941Z,17.00
2023-04-19T02:01:53.998Z,17.93
2023-04-19T02:06:57.014Z,17.57
2023-04-19T02:12:01.447Z,17.60
2023-04-19T02:17:04.519Z,18.23
2023-04-19T02:22:07.905Z,17.33
2023-04-19T02:27:12.770Z,18.00
2023-04-19T02:32:15.857Z,17.67
2023-04-19T02:37:19.149Z,17.67
2023-04-19T02:42:23.486Z,16.17
2023-04-19T02:47:26.576Z,17.77
2023-04-19T02:52:29.606Z,16.57
2023-04-19T02:57:34.015Z,17.80
2023-04-19T03:02:37.973Z,18.00
2023-04-19T03:07:42.530Z,19.17
2023-04-19T03:12:48.733Z,18.30
2023-04-19T03:17:51.955Z,18.47
2023-04-19T03:22:54.992Z,18.17
2023-04-19T03:27:59.511Z,18.87
2023-04-19T03:33:02.522Z,19.30
2023-04-19T03:38:05.609Z,18.50
2023-04-19T03:43:10.006Z,19.00
2023-04-19T03:48:13.017Z,19.07
2023-04-19T03:53:16.055Z,18.93
2023-04-19T03:58:20.405Z,18.33
2023-04-19T04:03:23.777Z,19.17
2023-04-19T04:08:27.044Z,18.00
2023-04-19T04:13:31.443Z,17.73
2023-04-19T04:18:34.474Z,18.83
2023-04-19T04:23:37.741Z,18.57
2023-04-19T04:28:42.326Z,16.93
2023-04-19T04:33:46.243Z,17.87
2023-04-19T04:38:49.883Z,17.23
2023-04-19T04:44:10.775Z,16.43
2023-04-19T04:49:15.441Z,15.57
2023-04-19T04:54:18.808Z,14.70
2023-04-19T04:59:23.172Z,15.80
2023-04-19T05:04:26.700Z,16.03
2023-04-19T05:09:29.730Z,17.07
2023-04-19T05:14:34.438Z,15.53
2023-04-19T05:19:37.726Z,14.93
2023-04-19T05:24:42.407Z,15.73
2023-04-19T05:29:46.953Z,14.57
2023-04-19T05:34:49.998Z,14.77
2023-04-19T05:39:53.112Z,13.23
2023-04-19T05:44:57.472Z,12.50
2023-04-19T05:50:01.027Z,12.90
2023-04-19T05:55:04.675Z,12.00
2023-04-19T06:00:10.801Z,11.17
2023-04-19T06:05:14.374Z,9.00
2023-04-19T06:10:17.992Z,10.30
2023-04-19T06:15:26.159Z,9.07
2023-04-19T06:20:29.191Z,7.80
2023-04-19T06:25:32.247Z,7.57
2023-04-19T06:30:36.617Z,7.77
2023-04-19T06:35:39.647Z,7.30
2023-04-19T06:40:42.641Z,6.17
2023-04-19T06:45:47.483Z,6.90
2023-04-19T06:50:50.562Z,6.57
2023-04-19T06:55:59.532Z,6.47
2023-04-19T07:01:04.391Z,6.50
2023-04-19T07:06:07.955Z,6.33
2023-04-19T07:11:11.213Z,6.50
2023-04-19T07:16:15.693Z,6.17
2023-04-19T07:21:19.228Z,6.13
2023-04-19T07:26:22.319Z,6.53
2023-04-19T07:31:26.956Z,6.37
2023-04-19T07:36:31.419Z,5.87
2023-04-19T07:41:36.086Z,5.47
2023-04-19T07:46:43.903Z,5.70
2023-04-19T07:51:46.959Z,5.40
2023-04-19T07:56:50.110Z,5.83
2023-04-19T08:01:54.546Z,6.27
2023-04-19T08:06:58.156Z,5.47
2023-04-19T08:12:01.286Z,5.77
2023-04-19T08:17:24.136Z,5.90
2023-04-19T08:22:28.779Z,5.00
2023-04-19T08:27:31.976Z,5.10
2023-04-19T08:32:36.371Z,6.07
2023-04-19T08:37:39.404Z,5.60
2023-04-19T08:42:42.863Z,6.50
2023-04-19T08:47:59.972Z,5.87
2023-04-19T08:53:21.113Z,6.28
2023-04-19T08:58:41.313Z,5.03
2023-04-19T09:04:02.569Z,6.10
2023-04-19T09:14:24.658Z,5.38
2023-04-19T09:19:46.911Z,5.07
2023-04-19T09:29:57.510Z,5.70
2023-04-19T09:35:01.866Z,6.50
2023-04-19T09:40:23.427Z,6.50
2023-04-19T09:45:30.868Z,6.28
2023-04-19T09:50:46.880Z,5.60
2023-04-19T09:56:02.260Z,5.60
2023-04-19T10:01:15.136Z,6.55
2023-04-19T10:11:33.737Z,5.75
2023-04-19T10:16:38.896Z,5.32
2023-04-19T10:21:46.412Z,5.35
2023-04-19T10:27:12.218Z,5.43
2023-04-19T10:32:16.261Z,5.18
2023-04-19T10:37:23.750Z,5.18
2023-04-19T10:42:44.354Z,5.18
2023-04-19T10:47:47.505Z,5.20
2023-04-19T10:52:51.975Z,4.50
2023-04-19T10:58:06.173Z,4.85
2023-04-19T11:03:46.973Z,4.35
2023-04-19T11:08:52.153Z,3.35
2023-04-19T11:13:57.858Z,3.50
2023-04-19T11:19:01.180Z,3.28
2023-04-19T11:24:09.058Z,3.40
2023-04-19T11:29:12.279Z,3.10
2023-04-19T11:34:16.127Z,3.35
2023-04-19T11:39:21.393Z,2.70
2023-04-19T11:44:24.548Z,2.75
2023-04-19T11:49:29.142Z,2.72
2023-04-19T11:54:33.888Z,2.78
2023-04-19T11:59:37.899Z,2.00
2023-04-19T12:04:42.034Z,1.90
2023-04-19T12:09:49.864Z,2.15
2023-04-19T12:14:53.561Z,1.98
2023-04-19T12:19:56.605Z,1.63
2023-04-19T12:25:00.938Z,2.20
2023-04-19T12:30:04.525Z,1.92
2023-04-19T12:35:08.626Z,1.65
2023-04-19T12:40:14.791Z,1.85
2023-04-19T12:45:19.277Z,2.17
2023-04-19T12:50:22.399Z,1.67
2023-04-19T12:55:26.832Z,1.50
2023-04-19T13:00:30.179Z,1.50
2023-04-19T13:05:33.263Z,1.80
2023-04-19T13:10:37.613Z,1.92
2023-04-19T13:15:41.837Z,2.33
2023-04-19T13:20:44.853Z,3.33
2023-04-19T13:25:49.199Z,3.50
2023-04-19T13:30:52.819Z,2.80
2023-04-19T13:35:55.876Z,1.70
2023-04-19T13:41:00.327Z,2.33
2023-04-19T13:46:03.348Z,1.90
2023-04-19T13:51:07.647Z,1.80
2023-04-19T13:56:12.021Z,2.73
2023-04-19T14:01:15.157Z,2.40
2023-04-19T14:06:18.224Z,2.53
2023-04-19T14:11:23.737Z,2.57
2023-04-19T14:16:26.882Z,2.50
2023-04-19T14:21:31.646Z,3.13
2023-04-19T14:26:36.056Z,5.17
2023-04-19T14:31:39.119Z,3.77
2023-04-19T14:36:42.170Z,3.13
2023-04-19T14:41:46.511Z,3.67
2023-04-19T14:46:49.493Z,3.00
2023-04-19T14:51:52.873Z,5.13
2023-04-19T14:56:57.257Z,4.30
2023-04-19T15:02:00.329Z,3.20
2023-04-19T15:07:03.948Z,3.40
2023-04-19T15:12:08.477Z,3.50
2023-04-19T15:17:11.488Z,4.70
2023-04-19T15:22:14.991Z,5.13
2023-04-19T15:27:19.673Z,3.40
2023-04-19T15:32:22.901Z,4.00
2023-04-19T15:37:28.470Z,2.93
2023-04-19T15:42:33.003Z,3.47
2023-04-19T15:47:36.480Z,3.50
2023-04-19T15:52:39.958Z,3.10
2023-04-19T15:57:45.522Z,3.63
2023-04-19T16:02:49.280Z,5.67
2023-04-19T16:08:02.604Z,3.47
2023-04-19T16:13:07.505Z,4.13
2023-04-19T16:18:11.177Z,3.60
2023-04-19T16:23:14.544Z,4.83
2023-04-19T16:28:19.775Z,3.53
2023-04-19T16:33:22.871Z,3.77
2023-04-19T16:38:26.015Z,4.90
2023-04-19T16:43:30.388Z,3.77
2023-04-19T16:48:33.743Z,4.27
2023-04-19T16:53:36.808Z,3.00
2023-04-19T16:58:41.217Z,3.27
2023-04-19T17:03:45.768Z,3.27
2023-04-19T17:08:49.023Z,3.40
2023-04-19T17:13:55.284Z,3.80
2023-04-19T17:18:59.700Z,3.43
2023-04-19T17:24:02.707Z,3.83
2023-04-19T17:29:07.152Z,4.77
2023-04-19T17:34:10.192Z,3.50
2023-04-19T17:39:13.206Z,3.60
2023-04-19T17:44:17.660Z,4.50
2023-04-19T17:49:21.678Z,3.37
2023-04-19T17:54:25.076Z,3.63
2023-04-19T17:59:29.800Z,3.20
2023-04-19T18:04:32.895Z,8.33
2023-04-19T18:09:35.975Z,3.47
2023-04-19T18:14:40.305Z,8.03
2023-04-19T18:19:43.354Z,13.57
2023-04-19T18:24:47.333Z,17.90
2023-04-19T18:29:52.974Z,6.37
2023-04-19T18:34:56.046Z,7.23
2023-04-19T18:39:59.058Z,5.20
2023-04-19T18:45:04.182Z,4.20
2023-04-19T18:50:08.933Z,3.23
2023-04-19T18:55:13.694Z,4.67
2023-04-19T19:00:19.881Z,4.30
2023-04-19T19:05:23.112Z,3.87
2023-04-19T19:10:48.542Z,3.97
2023-04-19T19:15:50.716Z,4.33
2023-04-19T19:20:58.119Z,4.60
2023-04-19T19:26:01.751Z,3.80
2023-04-19T19:31:06.759Z,3.63
2023-04-19T19:36:10.262Z,4.87
2023-04-19T19:46:22.792Z,4.23
2023-04-19T19:56:53.827Z,7.90
2023-04-19T20:02:03.800Z,4.70
2023-04-19T20:07:32.476Z,3.93
2023-04-19T20:12:29.945Z,6.47
2023-04-19T20:17:34.356Z,4.47
2023-04-19T20:22:37.720Z,3.87
2023-04-19T20:27:41.022Z,5.20
2023-04-19T20:32:45.713Z,4.17
2023-04-19T20:37:48.830Z,5.70
2023-04-19T20:42:51.972Z,4.20
2023-04-19T20:47:59.691Z,3.83
2023-04-19T20:53:02.765Z,4.60
2023-04-19T20:58:05.954Z,4.63
2023-04-19T21:03:10.588Z,3.67
2023-04-19T21:08:16.017Z,5.13
2023-04-19T21:13:19.061Z,4.47
2023-04-19T21:18:24.522Z,4.70
2023-04-19T21:23:28.366Z,6.40
2023-04-19T21:28:31.738Z,4.30
2023-04-19T21:33:36.551Z,6.37
2023-04-19T21:38:39.619Z,5.93
2023-04-19T21:43:42.637Z,7.60
2023-04-19T21:48:46.981Z,6.67
2023-04-19T21:53:50.381Z,5.07
2023-04-19T21:58:53.380Z,4.43
2023-04-19T22:03:58.600Z,4.43
2023-04-19T22:09:02.981Z,5.10
2023-04-19T22:14:06.676Z,5.40
2023-04-19T22:19:11.423Z,4.83
2023-04-19T22:24:14.826Z,4.93
2023-04-19T22:29:18.517Z,5.17
2023-04-19T22:34:23.095Z,5.93
2023-04-19T22:39:26.816Z,5.57
2023-04-19T22:44:29.919Z,6.20
2023-04-19T22:49:35.112Z,5.00
2023-04-19T22:54:38.166Z,6.00
2023-04-19T22:59:41.799Z,8.00
2023-04-19T23:04:48.447Z,5.77
2023-04-19T23:09:51.700Z,5.30
2023-04-19T23:14:55.154Z,5.13
2023-04-19T23:19:59.885Z,6.23
2023-04-19T23:25:02.920Z,5.93
2023-04-19T23:30:08.269Z,5.80
2023-04-19T23:35:12.754Z,5.10
2023-04-19T23:40:15.794Z,6.30
2023-04-19T23:45:18.934Z,5.57
2023-04-19T23:50:23.429Z,5.20
2023-04-19T23:55:26.503Z,7.40
